Time;durP1;ratioP1;P1;durP2;ratioP2;P2;SDS_P1;SDS_P2;PMS_P1;PMS_P2;Temp;Humidity;BMP_temperature;BMP_pressure;BME280_temperature;BME280_humidity;BME280_pressure;Samples;Min_cycle;Max_cycle;Signal;HPM_P1;HPM_P2
2022/04/15 00:01:49;;;;;;;2.60;1.00;;;21.20;99.90;;;;;;5026410;28;20079;-79
2022/04/15 00:04:16;;;;;;;5.03;1.17;;;21.30;99.90;;;;;;5027474;28;20040;-78
2022/04/15 00:06:44;;;;;;;4.28;1.17;;;21.30;99.90;;;;;;5026648;28;20046;-78
2022/04/15 00:09:11;;;;;;;3.65;0.90;;;21.40;99.90;;;;;;5025975;28;20398;-79
2022/04/15 00:11:38;;;;;;;3.25;0.70;;;21.40;99.90;;;;;;5022352;28;20255;-78
2022/04/15 00:14:06;;;;;;;5.78;1.13;;;21.30;99.90;;;;;;5022008;28;20028;-77
2022/04/15 00:16:33;;;;;;;2.88;1.10;;;21.50;99.90;;;;;;5023732;28;20022;-77
2022/04/15 00:19:01;;;;;;;6.38;1.73;;;21.90;99.90;;;;;;5026157;28;20494;-78
2022/04/15 00:21:28;;;;;;;2.53;0.77;;;22.10;99.90;;;;;;5029288;28;20413;-77
2022/04/15 00:23:57;;;;;;;4.10;0.75;;;22.10;99.90;;;;;;5010700;28;20037;-78
2022/04/15 00:26:24;;;;;;;3.33;1.00;;;22.20;99.90;;;;;;5005165;28;20026;-78
2022/04/15 00:28:52;;;;;;;3.60;0.70;;;22.30;99.90;;;;;;5028513;28;20033;-78
2022/04/15 00:31:19;;;;;;;2.05;0.88;;;22.10;99.90;;;;;;5016825;28;20080;-77
2022/04/15 00:33:47;;;;;;;2.65;0.95;;;22.30;99.90;;;;;;5030537;28;20020;-78
2022/04/15 00:36:14;;;;;;;2.75;1.02;;;22.20;99.90;;;;;;5026561;28;20029;-79
2022/04/15 00:38:41;;;;;;;5.78;1.58;;;22.60;99.90;;;;;;5020120;28;20434;-77
2022/04/15 00:41:16;;;;;;;3.72;1.02;;;22.60;99.90;;;;;;5028262;28;20057;-78
2022/04/15 00:43:44;;;;;;;5.82;1.60;;;22.70;99.90;;;;;;5033080;22;20042;-78
2022/04/15 00:46:12;;;;;;;3.72;0.93;;;22.70;99.90;;;;;;5042234;22;20586;-78
2022/04/15 00:48:39;;;;;;;3.13;0.70;;;23.00;99.90;;;;;;5049143;22;20054;-78
2022/04/15 00:53:38;;;;;;;4.35;0.85;;;23.00;99.90;;;;;;5017909;28;20049;-79
2022/04/15 00:56:08;;;;;;;5.65;0.95;;;22.60;99.90;;;;;;5010973;28;20108;-78
2022/04/15 00:58:39;;;;;;;3.78;0.70;;;22.80;99.90;;;;;;5012863;28;20049;-77
2022/04/15 01:01:08;;;;;;;3.83;0.70;;;22.90;99.90;;;;;;5014350;28;20042;-79
2022/04/15 01:03:36;;;;;;;2.25;0.40;;;22.70;99.90;;;;;;5009257;28;21454;-77
2022/04/15 01:06:06;;;;;;;2.75;0.63;;;23.10;99.90;;;;;;5014793;28;20026;-78
2022/04/15 01:08:39;;;;;;;3.63;0.80;;;22.70;99.90;;;;;;5015244;28;20405;-77
2022/04/15 01:11:10;;;;;;;2.38;0.70;;;22.50;99.90;;;;;;5012639;28;20026;-76
2022/04/15 01:13:38;;;;;;;6.30;0.88;;;22.80;99.90;;;;;;5010489;28;20037;-77
2022/04/15 01:16:07;;;;;;;3.67;1.13;;;23.10;99.90;;;;;;5014005;28;20096;-77
2022/04/15 01:18:34;;;;;;;6.78;1.00;;;23.10;99.90;;;;;;5007934;28;20108;-77
2022/04/15 01:21:03;;;;;;;6.30;0.95;;;22.90;99.90;;;;;;5009761;28;20042;-77
2022/04/15 01:23:30;;;;;;;5.22;1.02;;;23.20;99.90;;;;;;5006142;28;20032;-77
2022/04/15 01:25:57;;;;;;;3.47;0.70;;;23.70;99.90;;;;;;5010707;28;20025;-77
2022/04/15 01:28:25;;;;;;;3.60;0.82;;;23.40;99.90;;;;;;5008999;28;20056;-77
2022/04/15 01:30:52;;;;;;;3.28;0.73;;;23.30;99.90;;;;;;5012239;28;20026;-77
2022/04/15 01:33:19;;;;;;;5.72;1.20;;;23.40;99.90;;;;;;5012566;28;20056;-76
2022/04/15 01:35:47;;;;;;;3.63;0.90;;;23.50;99.90;;;;;;5014951;28;20017;-77
2022/04/15 01:38:17;;;;;;;3.03;0.77;;;24.20;99.90;;;;;;5011867;28;20494;-79
2022/04/15 01:40:45;;;;;;;2.88;0.60;;;23.90;99.90;;;;;;5011422;28;20548;-77
2022/04/15 01:43:12;;;;;;;7.03;1.10;;;23.50;99.90;;;;;;5013988;28;20076;-77
2022/04/15 01:45:40;;;;;;;2.83;0.57;;;24.20;99.90;;;;;;5014093;28;20076;-77
2022/04/15 01:48:07;;;;;;;1.25;0.50;;;24.30;99.90;;;;;;5013758;28;20030;-77
2022/04/15 01:50:35;;;;;;;2.47;0.55;;;24.40;99.90;;;;;;5007901;28;20040;-77
2022/04/15 01:53:03;;;;;;;5.45;0.95;;;24.20;99.90;;;;;;5013363;28;20133;-78
2022/04/15 01:55:30;;;;;;;2.67;0.70;;;23.90;99.90;;;;;;5010920;28;20446;-77
2022/04/15 01:57:58;;;;;;;2.63;1.08;;;24.10;99.90;;;;;;5014277;28;20032;-76
2022/04/15 02:00:25;;;;;;;3.15;0.73;;;24.80;99.90;;;;;;5013162;28;20122;-77
2022/04/15 02:02:52;;;;;;;6.03;1.05;;;25.50;99.90;;;;;;5012842;28;20033;-77
2022/04/15 02:05:20;;;;;;;3.08;0.63;;;24.80;99.90;;;;;;5011497;28;20049;-75
2022/04/15 02:07:47;;;;;;;2.00;0.40;;;24.70;99.90;;;;;;5015302;28;20423;-77
2022/04/15 02:10:15;;;;;;;3.85;0.57;;;25.20;99.90;;;;;;5012632;28;20505;-78
2022/04/15 02:12:42;;;;;;;1.58;0.30;;;24.80;99.90;;;;;;4991898;28;20394;-77
2022/04/15 02:15:10;;;;;;;3.33;0.40;;;24.30;99.90;;;;;;5011504;28;20403;-77
2022/04/15 02:17:37;;;;;;;3.58;0.68;;;24.40;99.90;;;;;;5014552;28;20032;-77
2022/04/15 02:20:06;;;;;;;1.80;0.30;;;24.70;99.90;;;;;;5011635;28;20034;-78
2022/04/15 02:22:33;;;;;;;2.25;0.50;;;25.50;99.90;;;;;;5003197;28;20036;-77
2022/04/15 02:25:00;;;;;;;2.58;0.45;;;25.90;99.90;;;;;;5012558;28;20105;-78
2022/04/15 02:27:28;;;;;;;2.83;0.50;;;25.90;99.90;;;;;;5000021;28;20037;-77
2022/04/15 02:29:55;;;;;;;3.00;0.30;;;25.10;99.90;;;;;;5008989;28;20026;-78
2022/04/15 02:32:23;;;;;;;2.70;0.30;;;24.80;99.90;;;;;;5017054;28;20034;-77
2022/04/15 02:34:51;;;;;;;3.95;0.40;;;25.20;99.90;;;;;;5012859;28;20032;-76
2022/04/15 02:37:18;;;;;;;2.20;0.35;;;26.00;99.90;;;;;;4998354;28;20018;-77
2022/04/15 02:39:46;;;;;;;3.53;0.50;;;25.60;99.90;;;;;;4993838;28;20561;-77
2022/04/15 02:42:14;;;;;;;3.47;0.60;;;25.60;99.90;;;;;;5011228;28;20057;-77
2022/04/15 02:44:41;;;;;;;3.67;0.32;;;25.80;99.90;;;;;;5010121;28;20046;-76
2022/04/15 02:47:09;;;;;;;2.17;0.60;;;25.60;99.90;;;;;;5013781;28;20092;-75
2022/04/15 02:49:36;;;;;;;3.92;0.73;;;25.60;99.90;;;;;;5009242;28;20037;-73
2022/04/15 02:52:04;;;;;;;2.10;0.30;;;25.40;99.90;;;;;;5011341;28;20041;-74
2022/04/15 02:54:31;;;;;;;1.15;0.55;;;25.80;99.90;;;;;;5060231;22;20410;-73
2022/04/15 02:56:59;;;;;;;5.95;0.30;;;25.90;99.90;;;;;;5052094;28;20028;-74
2022/04/15 02:59:26;;;;;;;4.32;0.43;;;26.40;99.90;;;;;;5040854;23;20413;-74
2022/04/15 03:01:53;;;;;;;2.72;0.30;;;25.80;99.90;;;;;;5052286;28;20020;-72
2022/04/15 03:04:21;;;;;;;2.20;0.52;;;25.50;99.90;;;;;;5048815;28;20107;-72
2022/04/15 03:06:48;;;;;;;1.27;0.38;;;25.40;99.90;;;;;;5052625;28;20032;-72
2022/04/15 03:09:15;;;;;;;5.43;0.65;;;25.50;99.90;;;;;;5051060;28;20112;-72
2022/04/15 03:11:43;;;;;;;3.35;0.30;;;25.60;99.90;;;;;;5052380;28;20024;-72
2022/04/15 03:14:10;;;;;;;0.93;0.20;;;25.50;99.90;;;;;;5053234;28;20024;-72
2022/04/15 03:16:37;;;;;;;0.60;0.30;;;25.70;99.90;;;;;;5051482;28;20374;-72
2022/04/15 03:19:04;;;;;;;2.72;0.50;;;26.00;99.90;;;;;;5058154;22;20045;-72
2022/04/15 03:21:32;;;;;;;4.57;0.73;;;26.10;99.90;;;;;;5051693;22;20381;-71
2022/04/15 03:23:59;;;;;;;2.83;0.70;;;25.50;99.90;;;;;;5031081;28;20032;-72
2022/04/15 03:26:26;;;;;;;5.45;0.80;;;25.10;99.90;;;;;;5017583;28;20397;-72
2022/04/15 03:28:54;;;;;;;2.35;0.50;;;25.60;99.90;;;;;;5046289;28;20554;-72
2022/04/15 03:31:22;;;;;;;5.10;0.68;;;25.60;99.90;;;;;;5042887;28;20624;-71
2022/04/15 03:33:49;;;;;;;3.38;0.50;;;25.40;99.90;;;;;;5060149;22;20056;-72
2022/04/15 03:36:17;;;;;;;3.40;0.43;;;25.30;99.90;;;;;;5054097;28;20029;-72
2022/04/15 03:38:44;;;;;;;6.57;0.60;;;25.40;99.90;;;;;;5050988;28;20025;-71
2022/04/15 03:41:11;;;;;;;5.10;0.95;;;25.00;99.90;;;;;;5051392;28;20037;-72
2022/04/15 03:43:40;;;;;;;5.05;0.70;;;24.70;99.90;;;;;;5039018;28;20021;-71
2022/04/15 03:46:08;;;;;;;4.13;0.75;;;24.60;99.90;;;;;;5051582;28;20487;-76
2022/04/15 03:48:35;;;;;;;5.30;0.63;;;24.70;99.90;;;;;;5062297;22;20385;-76
2022/04/15 03:51:14;;;;;;;3.67;0.70;;;24.70;99.90;;;;;;5048950;28;20041;-75
2022/04/15 03:53:41;;;;;;;2.85;0.30;;;25.10;99.90;;;;;;5039701;28;20512;-76
2022/04/15 03:56:08;;;;;;;2.92;0.40;;;24.90;99.90;;;;;;5063230;28;20033;-73
2022/04/15 03:58:36;;;;;;;6.22;0.85;;;24.50;99.90;;;;;;5037434;28;20037;-74
2022/04/15 04:01:03;;;;;;;6.07;1.42;;;24.20;99.90;;;;;;5032064;28;20080;-76
2022/04/15 04:03:30;;;;;;;4.88;0.63;;;24.00;99.90;;;;;;5056313;28;20116;-72
2022/04/15 04:05:58;;;;;;;6.45;0.70;;;24.00;99.90;;;;;;5057077;28;20434;-77
2022/04/15 04:08:25;;;;;;;4.93;0.90;;;23.80;99.90;;;;;;5033800;28;20116;-76
2022/04/15 04:10:52;;;;;;;3.95;0.80;;;23.90;99.90;;;;;;5054481;28;20422;-75
2022/04/15 04:13:19;;;;;;;4.85;0.50;;;23.80;99.90;;;;;;5049128;28;20111;-73
2022/04/15 04:15:47;;;;;;;3.13;0.52;;;23.90;99.90;;;;;;5046682;28;20420;-72
2022/04/15 04:18:14;;;;;;;7.07;0.50;;;23.60;99.90;;;;;;5060418;28;20029;-73
2022/04/15 04:20:42;;;;;;;3.17;0.55;;;23.20;99.90;;;;;;5055045;28;20420;-73
2022/04/15 04:23:09;;;;;;;3.13;0.60;;;22.90;99.90;;;;;;5053628;28;20086;-72
2022/04/15 04:25:37;;;;;;;2.35;0.28;;;22.90;99.90;;;;;;5053732;28;21260;-73
2022/04/15 04:28:04;;;;;;;4.18;0.90;;;23.00;99.90;;;;;;5054640;28;20029;-74
2022/04/15 04:30:31;;;;;;;4.35;0.60;;;23.30;99.90;;;;;;5037622;28;20037;-73
2022/04/15 04:32:59;;;;;;;3.25;0.55;;;23.20;99.90;;;;;;5053541;28;20049;-73
2022/04/15 04:35:27;;;;;;;4.78;0.55;;;23.00;99.90;;;;;;5059993;28;20104;-73
2022/04/15 04:37:55;;;;;;;9.00;0.30;;;22.80;99.90;;;;;;5060760;28;20021;-73
2022/04/15 04:40:22;;;;;;;5.25;0.60;;;22.60;99.90;;;;;;5050788;28;20029;-73
2022/04/15 04:42:52;;;;;;;6.57;0.73;;;22.40;99.90;;;;;;5029135;28;20029;-73
2022/04/15 04:45:20;;;;;;;4.45;0.50;;;22.50;99.90;;;;;;5050668;28;20493;-73
2022/04/15 04:47:48;;;;;;;5.72;1.08;;;22.50;99.90;;;;;;5056282;28;20044;-73
2022/04/15 04:50:15;;;;;;;3.45;0.63;;;22.50;99.90;;;;;;5053172;28;20064;-73
2022/04/15 04:52:43;;;;;;;3.70;0.73;;;22.60;99.90;;;;;;5057068;28;20055;-73
2022/04/15 04:55:10;;;;;;;4.03;0.50;;;22.50;99.90;;;;;;5055852;28;20021;-73
2022/04/15 04:57:42;;;;;;;6.25;0.75;;;22.50;99.90;;;;;;5055945;28;20071;-73
2022/04/15 05:00:11;;;;;;;5.18;0.52;;;22.40;99.90;;;;;;5046733;28;20021;-72
2022/04/15 05:02:39;;;;;;;3.58;0.60;;;22.30;99.90;;;;;;5054276;28;20025;-73
2022/04/15 05:05:07;;;;;;;4.97;0.88;;;22.30;99.90;;;;;;5045772;28;20041;-73
2022/04/15 05:07:35;;;;;;;3.20;0.35;;;22.20;99.90;;;;;;5025737;28;20061;-73
2022/04/15 05:10:02;;;;;;;2.50;0.32;;;22.20;99.90;;;;;;5055204;28;20029;-73
2022/04/15 05:12:30;;;;;;;7.53;0.57;;;22.10;99.90;;;;;;5054615;28;20485;-73
2022/04/15 05:14:57;;;;;;;3.42;0.60;;;22.00;99.90;;;;;;5057831;28;20052;-73
2022/04/15 05:17:27;;;;;;;5.03;0.40;;;22.00;99.90;;;;;;5059873;28;20017;-73
2022/04/15 05:19:55;;;;;;;4.63;0.55;;;21.90;99.90;;;;;;5054755;28;20037;-73
2022/04/15 05:22:23;;;;;;;4.55;0.40;;;21.90;99.90;;;;;;5055854;28;20044;-72
2022/04/15 05:24:52;;;;;;;3.53;0.50;;;21.90;99.90;;;;;;5047508;28;20389;-73
2022/04/15 05:27:20;;;;;;;2.13;0.47;;;21.80;99.90;;;;;;5031062;28;20243;-72
2022/04/15 05:29:47;;;;;;;2.63;0.50;;;21.90;99.90;;;;;;5049624;28;20021;-72
2022/04/15 05:32:14;;;;;;;7.28;0.50;;;21.70;99.90;;;;;;5051745;28;20499;-73
2022/04/15 05:34:46;;;;;;;2.42;0.30;;;21.70;99.90;;;;;;5037095;28;20082;-74
2022/04/15 05:37:13;;;;;;;4.03;0.30;;;21.60;99.90;;;;;;5045170;28;20496;-73
2022/04/15 05:39:40;;;;;;;2.92;0.50;;;21.70;99.90;;;;;;5051695;28;20098;-72
2022/04/15 05:42:08;;;;;;;4.97;0.50;;;21.80;99.90;;;;;;5052320;28;20120;-73
2022/04/15 05:44:35;;;;;;;4.03;0.85;;;21.90;99.90;;;;;;5051454;28;20100;-72
2022/04/15 05:47:02;;;;;;;7.25;0.60;;;21.90;99.90;;;;;;5046210;28;20067;-73
2022/04/15 05:49:31;;;;;;;4.25;0.47;;;22.00;99.90;;;;;;5047943;28;20056;-72
2022/04/15 05:51:58;;;;;;;1.98;0.45;;;21.90;99.90;;;;;;5051917;28;21617;-74
2022/04/15 05:54:25;;;;;;;5.55;0.85;;;22.00;99.90;;;;;;5053496;28;20025;-73
2022/04/15 05:56:53;;;;;;;3.38;0.47;;;22.00;99.90;;;;;;5054420;28;20021;-73
2022/04/15 05:59:21;;;;;;;2.90;0.40;;;22.00;99.90;;;;;;5034258;28;20047;-73
2022/04/15 06:01:51;;;;;;;2.72;0.55;;;22.00;99.90;;;;;;5055361;28;20031;-72
2022/04/15 06:04:18;;;;;;;4.18;0.40;;;21.90;99.90;;;;;;5034103;28;20443;-72
2022/04/15 06:06:47;;;;;;;3.03;0.45;;;21.80;99.90;;;;;;5047164;28;20017;-72
2022/04/15 06:09:14;;;;;;;7.13;0.50;;;21.80;99.90;;;;;;5033812;28;20021;-72
2022/04/15 06:11:42;;;;;;;4.03;0.35;;;21.70;99.90;;;;;;5053613;28;20068;-73
2022/04/15 06:14:09;;;;;;;3.80;0.30;;;21.60;99.90;;;;;;5053174;28;20115;-72
2022/04/15 06:16:39;;;;;;;3.00;0.30;;;21.50;99.90;;;;;;5050095;28;20032;-73
2022/04/15 06:19:06;;;;;;;3.75;0.55;;;21.40;99.90;;;;;;5052881;28;20024;-70
2022/04/15 06:21:34;;;;;;;2.17;0.55;;;21.40;99.90;;;;;;5035657;28;20044;-70
2022/04/15 06:24:01;;;;;;;2.40;0.50;;;21.40;99.90;;;;;;5048451;28;20029;-69
2022/04/15 06:26:28;;;;;;;5.90;0.30;;;21.40;99.90;;;;;;5049233;28;20392;-70
2022/04/15 06:28:55;;;;;;;12.60;0.68;;;21.30;99.90;;;;;;5052052;28;20111;-70
2022/04/15 06:31:23;;;;;;;3.03;0.70;;;21.30;99.90;;;;;;5053377;28;20117;-70
2022/04/15 06:33:52;;;;;;;4.03;0.40;;;21.30;99.90;;;;;;5052953;28;20037;-71
2022/04/15 06:36:20;;;;;;;5.10;0.65;;;21.30;99.90;;;;;;5053125;28;20025;-70
2022/04/15 06:38:48;;;;;;;3.40;0.57;;;21.20;99.90;;;;;;5040337;28;20021;-70
2022/04/15 06:41:15;;;;;;;5.78;0.47;;;21.20;99.90;;;;;;5050495;28;20029;-71
2022/04/15 06:43:42;;;;;;;5.00;0.30;;;21.20;99.90;;;;;;5054194;28;20413;-71
2022/04/15 06:46:10;;;;;;;3.72;0.60;;;21.10;99.90;;;;;;5052789;28;20172;-71
2022/04/15 06:48:37;;;;;;;3.38;0.20;;;21.10;99.90;;;;;;5058401;28;20029;-72
2022/04/15 06:51:04;;;;;;;3.22;0.50;;;21.10;99.90;;;;;;5029381;28;20480;-72
2022/04/15 06:53:32;;;;;;;4.43;0.50;;;21.10;99.90;;;;;;5032972;28;20453;-72
2022/04/15 06:56:00;;;;;;;10.52;0.77;;;21.00;99.90;;;;;;5053748;28;20037;-72
2022/04/15 06:58:27;;;;;;;6.40;0.70;;;21.00;99.90;;;;;;5034689;28;20744;-72
2022/04/15 07:00:54;;;;;;;3.92;0.45;;;21.00;99.90;;;;;;5052580;28;20037;-73
2022/04/15 07:03:24;;;;;;;6.80;0.60;;;21.00;99.90;;;;;;5052299;28;20115;-71
2022/04/15 07:05:52;;;;;;;3.97;0.85;;;21.00;99.90;;;;;;5042176;28;20102;-71
2022/04/15 07:08:19;;;;;;;4.07;0.60;;;21.00;99.90;;;;;;5047565;28;20048;-71
2022/04/15 07:10:46;;;;;;;3.60;0.77;;;20.90;99.90;;;;;;5043014;28;20071;-71
2022/04/15 07:13:13;;;;;;;4.30;0.60;;;20.80;99.90;;;;;;5047569;28;20075;-71
2022/04/15 07:15:42;;;;;;;1.92;0.65;;;20.80;99.90;;;;;;5045060;28;20388;-72
2022/04/15 07:18:09;;;;;;;1.80;0.98;;;20.80;99.90;;;;;;5021510;28;20116;-71
2022/04/15 07:20:36;;;;;;;4.15;1.17;;;20.80;99.90;;;;;;5048260;28;20025;-70
2022/04/15 07:23:04;;;;;;;10.85;7.13;;;20.70;99.90;;;;;;5079095;22;20045;-68
2022/04/15 07:25:33;;;;;;;8.55;2.85;;;20.70;99.90;;;;;;5058762;28;20021;-69
2022/04/15 07:28:01;;;;;;;4.30;2.22;;;20.60;99.90;;;;;;5073008;22;20045;-69
2022/04/15 07:30:29;;;;;;;5.38;2.28;;;20.60;99.90;;;;;;5044380;28;20036;-69
2022/04/15 07:32:56;;;;;;;7.18;3.67;;;20.60;99.90;;;;;;5054956;28;20100;-68
2022/04/15 07:35:24;;;;;;;12.90;8.73;;;20.60;99.90;;;;;;5044095;28;20066;-69
2022/04/15 07:37:51;;;;;;;8.65;4.28;;;20.50;99.90;;;;;;5060817;28;20018;-68
2022/04/15 07:40:18;;;;;;;13.00;8.57;;;20.50;99.90;;;;;;5073765;28;20029;-68
2022/04/15 07:42:46;;;;;;;16.10;11.70;;;20.40;99.90;;;;;;5074702;28;20082;-68
2022/04/15 07:45:13;;;;;;;5.60;3.25;;;20.40;99.90;;;;;;5062235;28;20049;-68
2022/04/15 07:47:40;;;;;;;3.92;1.48;;;20.30;99.90;;;;;;5067703;28;20084;-68
2022/04/15 07:50:08;;;;;;;3.80;1.63;;;20.30;99.90;;;;;;5072975;28;20033;-68
2022/04/15 07:52:36;;;;;;;7.55;4.15;;;20.30;99.90;;;;;;5071450;28;20028;-68
2022/04/15 07:55:03;;;;;;;24.25;18.13;;;20.20;99.90;;;;;;5071423;28;20033;-68
2022/04/15 07:57:31;;;;;;;4.90;1.92;;;20.20;99.90;;;;;;5047613;28;20033;-68
2022/04/15 07:59:58;;;;;;;4.97;1.70;;;20.10;99.90;;;;;;5069646;28;20063;-68
2022/04/15 08:02:26;;;;;;;3.78;1.65;;;20.10;99.90;;;;;;5058537;28;20068;-68
2022/04/15 08:04:54;;;;;;;6.57;2.28;;;20.10;99.90;;;;;;5070570;28;20029;-68
2022/04/15 08:07:22;;;;;;;4.63;1.70;;;20.10;99.90;;;;;;5070999;28;20063;-68
2022/04/15 08:09:49;;;;;;;6.40;1.77;;;20.00;99.90;;;;;;5072760;28;20025;-68
2022/04/15 08:12:17;;;;;;;4.38;1.20;;;20.00;99.90;;;;;;5073723;28;20051;-68
2022/04/15 08:14:44;;;;;;;5.65;0.95;;;19.90;99.90;;;;;;5073373;28;20029;-69
2022/04/15 08:17:11;;;;;;;6.45;1.10;;;20.00;99.90;;;;;;5073131;28;20025;-68
2022/04/15 08:19:39;;;;;;;3.63;0.73;;;19.90;99.90;;;;;;5072211;22;20048;-69
2022/04/15 08:24:35;;;;;;;6.95;1.38;;;19.80;99.90;;;;;;5036290;28;20041;-68
2022/04/15 08:27:02;;;;;;;6.95;1.63;;;19.80;99.90;;;;;;5039275;28;20032;-69
2022/04/15 08:29:30;;;;;;;8.10;2.67;;;19.80;99.90;;;;;;5031997;28;20035;-69
2022/04/15 08:31:57;;;;;;;7.43;1.85;;;19.80;99.90;;;;;;5055182;22;20044;-69
2022/04/15 08:34:24;;;;;;;6.18;1.33;;;19.70;99.90;;;;;;5061246;28;20029;-69
2022/04/15 08:36:51;;;;;;;5.70;1.45;;;19.70;99.90;;;;;;5059714;28;20071;-68
2022/04/15 08:39:19;;;;;;;5.53;1.35;;;19.70;99.90;;;;;;5072143;28;20053;-68
2022/04/15 08:41:46;;;;;;;5.15;1.20;;;19.70;99.90;;;;;;5070261;28;20126;-68
2022/04/15 08:44:14;;;;;;;4.78;1.38;;;19.70;99.90;;;;;;5052538;28;20032;-68
2022/04/15 08:46:42;;;;;;;6.10;1.17;;;19.70;99.90;;;;;;5047795;28;20037;-68
2022/04/15 08:49:10;;;;;;;3.22;0.70;;;19.70;99.90;;;;;;5072849;28;20044;-68
2022/04/15 08:51:38;;;;;;;4.80;1.25;;;19.70;99.90;;;;;;5070522;28;20063;-68
2022/04/15 08:54:07;;;;;;;3.08;1.08;;;19.70;99.90;;;;;;5048261;28;20025;-68
2022/04/15 08:56:35;;;;;;;3.55;1.33;;;19.70;99.90;;;;;;5051133;28;20052;-68
2022/04/15 08:59:02;;;;;;;6.80;1.85;;;19.70;99.90;;;;;;5064343;28;20096;-68
2022/04/15 09:01:30;;;;;;;3.97;1.17;;;19.70;99.90;;;;;;5066064;28;20041;-68
2022/04/15 09:04:00;;;;;;;6.53;1.17;;;19.80;99.90;;;;;;5074917;28;20033;-68
2022/04/15 09:06:32;;;;;;;4.30;1.17;;;19.70;99.90;;;;;;5064054;28;20024;-68
2022/04/15 09:09:12;;;;;;;6.90;1.08;;;19.80;99.90;;;;;;5044532;28;20024;-68
2022/04/15 09:11:44;;;;;;;6.32;1.05;;;19.80;99.90;;;;;;5063646;28;20024;-68
2022/04/15 09:14:13;;;;;;;5.07;1.20;;;19.70;99.90;;;;;;5040597;28;20028;-68
2022/04/15 09:16:43;;;;;;;4.15;1.00;;;19.80;99.90;;;;;;5064124;28;20025;-68
2022/04/15 09:19:12;;;;;;;4.57;1.08;;;19.80;99.90;;;;;;5047613;28;20028;-68
2022/04/15 09:21:41;;;;;;;4.75;1.15;;;19.80;99.90;;;;;;5067934;28;20044;-68
2022/04/15 09:24:11;;;;;;;7.63;1.65;;;19.70;99.90;;;;;;5047165;28;20035;-68
2022/04/15 09:26:39;;;;;;;7.57;1.92;;;19.70;99.90;;;;;;5064950;28;20028;-68
2022/04/15 09:29:06;;;;;;;5.28;1.70;;;19.70;99.90;;;;;;5072637;28;20029;-68
2022/04/15 09:31:34;;;;;;;7.85;2.50;;;19.70;99.90;;;;;;5068537;28;20048;-68
2022/04/15 09:34:02;;;;;;;6.28;1.50;;;19.70;99.90;;;;;;5063445;28;20032;-68
2022/04/15 09:36:36;;;;;;;7.65;0.88;;;19.70;99.90;;;;;;5064802;28;20025;-68
2022/04/15 09:39:11;;;;;;;;;;;19.70;99.90;;;;;;5069403;28;20025;-68
2022/04/15 09:41:40;;;;;;;4.10;1.38;;;19.60;99.90;;;;;;5069075;28;20011;-69
2022/04/15 09:44:11;;;;;;;4.90;1.40;;;19.60;99.90;;;;;;5058431;28;20104;-69
2022/04/15 09:46:42;;;;;;;5.72;1.10;;;19.50;99.90;;;;;;5045525;28;20021;-68
2022/04/15 09:49:11;;;;;;;3.88;1.23;;;19.50;99.90;;;;;;5083241;28;20025;-68
2022/04/15 09:51:46;;;;;;;4.78;1.00;;;19.50;99.90;;;;;;5072877;28;20032;-68
2022/04/15 09:54:25;;;;;;;2.92;1.13;;;19.50;99.90;;;;;;5058220;28;20021;-68
2022/04/15 09:57:00;;;;;;;5.35;1.70;;;19.50;99.90;;;;;;5052280;28;20089;-68
2022/04/15 09:59:29;;;;;;;6.32;1.20;;;19.40;99.90;;;;;;5045775;28;20030;-68
2022/04/15 10:02:05;;;;;;;5.97;1.05;;;19.40;99.90;;;;;;5059547;28;20021;-68
2022/04/15 10:04:34;;;;;;;2.75;0.88;;;19.40;99.90;;;;;;5066822;28;20060;-68
2022/04/15 10:07:06;;;;;;;4.60;0.88;;;19.40;99.90;;;;;;5059686;28;20162;-69
2022/04/15 10:09:42;;;;;;;4.32;1.38;;;19.40;99.90;;;;;;5059998;28;20017;-69
2022/04/15 10:12:09;;;;;;;5.40;1.83;;;19.50;99.90;;;;;;5056498;28;20096;-68
2022/04/15 10:14:38;;;;;;;5.20;0.82;;;19.40;99.90;;;;;;5056064;28;20092;-68
2022/04/15 10:17:06;;;;;;;3.00;0.60;;;19.50;99.90;;;;;;5073646;28;20013;-68
2022/04/15 10:19:34;;;;;;;4.65;0.85;;;19.50;99.90;;;;;;5061876;28;20032;-68
2022/04/15 10:22:03;;;;;;;3.60;0.63;;;19.50;99.90;;;;;;5053823;28;20037;-68
2022/04/15 10:24:30;;;;;;;3.67;0.70;;;19.50;99.90;;;;;;5069215;28;20140;-68
2022/04/15 10:27:01;;;;;;;3.20;0.95;;;19.30;99.90;;;;;;5068429;28;20029;-67
2022/04/15 10:29:28;;;;;;;7.65;2.20;;;19.30;99.90;;;;;;5075294;28;20001;-68
2022/04/15 10:31:56;;;;;;;6.80;1.52;;;19.30;99.90;;;;;;5074180;28;20063;-68
2022/04/15 10:34:24;;;;;;;4.50;1.00;;;19.20;99.90;;;;;;5072841;28;20021;-67
2022/04/15 10:36:56;;;;;;;2.70;0.88;;;19.10;99.90;;;;;;5076264;28;20069;-67
2022/04/15 10:39:27;;;;;;;5.43;1.10;;;19.10;99.90;;;;;;5076056;28;20072;-67
2022/04/15 10:41:58;;;;;;;9.07;1.30;;;19.10;99.90;;;;;;5057768;28;20049;-68
2022/04/15 10:44:27;;;;;;;3.38;0.75;;;19.00;99.90;;;;;;5063653;28;20036;-68
2022/04/15 10:47:04;;;;;;;6.53;0.70;;;19.00;99.90;;;;;;5054831;28;20033;-68
2022/04/15 10:49:33;;;;;;;3.33;0.77;;;18.90;99.90;;;;;;5072658;28;20025;-68
2022/04/15 10:52:24;;;;;;;3.85;1.00;;;18.90;99.90;;;;;;5073161;28;20016;-68
2022/04/15 10:54:53;;;;;;;7.65;1.42;;;18.90;99.90;;;;;;5059477;28;20025;-68
2022/04/15 10:57:22;;;;;;;5.65;0.90;;;18.80;99.90;;;;;;5076359;28;20040;-68
2022/04/15 11:02:51;;;;;;;3.13;0.80;;;18.70;99.90;;;;;;5068472;28;20062;-68
2022/04/15 11:05:43;;;;;;;6.32;1.10;;;18.70;99.90;;;;;;5079239;28;20008;-68
2022/04/15 11:08:15;;;;;;;4.28;0.88;;;18.90;99.90;;;;;;5058110;28;20059;-68
2022/04/15 11:11:04;;;;;;;4.07;0.60;;;18.90;99.90;;;;;;5055810;28;20039;-68
2022/04/15 11:13:40;;;;;;;4.95;0.70;;;18.90;99.90;;;;;;5064155;28;20043;-68
2022/04/15 11:16:14;;;;;;;4.60;0.82;;;18.90;99.90;;;;;;5079727;28;20035;-68
2022/04/15 11:18:50;;;;;;;6.65;1.00;;;19.00;99.90;;;;;;5077825;28;20052;-68
2022/04/15 11:21:41;;;;;;;3.03;0.90;;;18.90;99.90;;;;;;5056350;28;20026;-68
2022/04/15 11:24:13;;;;;;;7.10;0.77;;;18.90;99.90;;;;;;5070840;28;20029;-68
2022/04/15 11:26:44;;;;;;;3.03;0.45;;;18.90;99.90;;;;;;5074878;28;20013;-68
2022/04/15 11:29:14;;;;;;;0.95;0.45;;;18.90;99.90;;;;;;5074632;28;20063;-68
2022/04/15 11:31:46;;;;;;;6.15;1.70;;;18.90;99.90;;;;;;5070661;28;20075;-68
2022/04/15 11:34:16;;;;;;;4.20;0.93;;;18.90;99.90;;;;;;5073403;28;20048;-68
2022/04/15 11:36:45;;;;;;;2.65;0.45;;;18.80;99.90;;;;;;5065452;28;20009;-68
2022/04/15 11:39:21;;;;;;;2.28;0.47;;;18.80;99.90;;;;;;5061696;28;20053;-68
2022/04/15 11:41:49;;;;;;;7.03;1.05;;;18.80;99.90;;;;;;5069775;28;20064;-68
2022/04/15 11:44:18;;;;;;;1.40;0.35;;;18.80;99.90;;;;;;5073304;28;20096;-68
2022/04/15 11:46:53;;;;;;;4.18;0.40;;;18.80;99.90;;;;;;5052172;28;20036;-68
2022/04/15 11:49:32;;;;;;;3.80;0.88;;;18.80;99.90;;;;;;5056002;28;20029;-68
2022/04/15 11:52:00;;;;;;;1.45;0.40;;;18.70;99.90;;;;;;5068475;28;20017;-68
2022/04/15 11:54:33;;;;;;;2.60;0.63;;;18.70;99.90;;;;;;5052356;28;20028;-68
2022/04/15 11:57:05;;;;;;;5.28;1.42;;;18.70;99.90;;;;;;5066926;28;20494;-68
2022/04/15 11:59:46;;;;;;;2.45;1.23;;;18.60;99.90;;;;;;5051407;28;20036;-68
2022/04/15 12:02:15;;;;;;;4.22;0.80;;;18.60;99.90;;;;;;5054511;28;20009;-68
2022/04/15 12:04:56;;;;;;;4.18;0.80;;;18.50;99.90;;;;;;5062744;28;20009;-68
2022/04/15 12:07:24;;;;;;;3.67;0.70;;;18.50;99.90;;;;;;5051869;28;20013;-69
2022/04/15 12:09:52;;;;;;;6.07;0.90;;;18.50;99.90;;;;;;5071818;28;20047;-68
2022/04/15 12:12:24;;;;;;;2.50;0.60;;;18.50;99.90;;;;;;5070122;28;20029;-68
2022/04/15 12:14:53;;;;;;;3.78;1.00;;;18.40;99.90;;;;;;5065008;28;20021;-67
2022/04/15 12:17:22;;;;;;;4.50;1.45;;;18.30;99.90;;;;;;5069103;28;20025;-68
2022/04/15 12:19:50;;;;;;;6.70;1.77;;;18.30;99.90;;;;;;5075332;28;20027;-68
2022/04/15 12:22:19;;;;;;;9.18;1.33;;;18.40;99.90;;;;;;5067980;28;20025;-68
2022/04/15 12:24:49;;;;;;;3.30;0.70;;;18.40;99.90;;;;;;5077885;28;20052;-68
2022/04/15 12:27:18;;;;;;;3.90;0.65;;;18.50;99.90;;;;;;5078489;28;20009;-68
2022/04/15 12:29:51;;;;;;;3.22;0.80;;;18.50;99.90;;;;;;5077190;28;20021;-68
2022/04/15 12:32:34;;;;;;;2.43;0.40;;;18.50;99.90;;;;;;5079495;28;20039;-68
2022/04/15 12:35:02;;;;;;;4.82;0.85;;;18.40;99.90;;;;;;5075788;28;20059;-68
2022/04/15 12:37:35;;;;;;;3.58;0.93;;;18.40;99.90;;;;;;5077651;28;20005;-68
2022/04/15 12:40:24;;;;;;;4.65;0.70;;;18.30;99.90;;;;;;5070241;28;20041;-68
2022/04/15 12:42:53;;;;;;;2.50;0.57;;;18.30;99.90;;;;;;5078153;28;20052;-68
2022/04/15 12:45:21;;;;;;;3.90;0.98;;;18.30;99.90;;;;;;5074785;28;20033;-68
2022/04/15 12:47:59;;;;;;;2.35;0.70;;;18.30;99.90;;;;;;5078006;28;20077;-68
2022/04/15 12:50:33;;;;;;;1.95;0.77;;;18.40;99.90;;;;;;5066195;28;20009;-68
2022/04/15 12:53:03;;;;;;;15.43;0.82;;;18.30;99.90;;;;;;5077752;28;20013;-68
2022/04/15 12:55:35;;;;;;;3.10;0.50;;;18.30;99.90;;;;;;5077562;28;20029;-68
2022/04/15 12:58:24;;;;;;;4.10;1.02;;;18.20;99.90;;;;;;5078662;28;20043;-68
2022/04/15 13:00:57;;;;;;;4.07;0.60;;;18.20;99.90;;;;;;5074985;28;20029;-68
2022/04/15 13:03:30;;;;;;;6.55;0.85;;;18.10;99.90;;;;;;5062462;28;20047;-68
2022/04/15 13:05:58;;;;;;;6.47;1.30;;;18.10;99.90;;;;;;5077110;28;20013;-68